sensor_id;sensor_type;location;lat;lon;timestamp;pressure;altitude;pressure_sealevel;temperature;humidity
80116;BME280;69423;47.608;19.366;2023-08-17T00:00:05;99257.75;;;22.05;76.94
80116;BME280;69423;47.608;19.366;2023-08-17T00:00:39;99248.19;;;22.02;76.70
80116;BME280;69423;47.608;19.366;2023-08-17T00:01:10;99253.63;;;22.02;77.41
80116;BME280;69423;47.608;19.366;2023-08-17T00:01:41;99248.94;;;21.97;77.27
80116;BME280;69423;47.608;19.366;2023-08-17T00:02:13;99248.19;;;22.02;76.63
80116;BME280;69423;47.608;19.366;2023-08-17T00:02:44;99246.88;;;22.05;76.62
80116;BME280;69423;47.608;19.366;2023-08-17T00:03:15;99247.94;;;22.03;76.77
80116;BME280;69423;47.608;19.366;2023-08-17T00:03:46;99244.75;;;22.07;76.46
80116;BME280;69423;47.608;19.366;2023-08-17T00:04:17;99253.94;;;22.06;77.57
80116;BME280;69423;47.608;19.366;2023-08-17T00:04:48;99256.41;;;22.07;77.07
80116;BME280;69423;47.608;19.366;2023-08-17T00:05:19;99251.47;;;22.04;76.81
80116;BME280;69423;47.608;19.366;2023-08-17T00:05:50;99252.03;;;22.06;76.94
80116;BME280;69423;47.608;19.366;2023-08-17T00:06:21;99256.41;;;22.07;77.58
80116;BME280;69423;47.608;19.366;2023-08-17T00:06:52;99258.31;;;22.07;77.65
80116;BME280;69423;47.608;19.366;2023-08-17T00:07:23;99255.59;;;22.07;77.55
80116;BME280;69423;47.608;19.366;2023-08-17T00:07:54;99254.47;;;22.02;77.67
80116;BME280;69423;47.608;19.366;2023-08-17T00:08:25;99255.50;;;22.01;77.83
80116;BME280;69423;47.608;19.366;2023-08-17T00:08:56;99251.75;;;22.02;77.65
80116;BME280;69423;47.608;19.366;2023-08-17T00:09:27;99252.31;;;22.05;77.47
80116;BME280;69423;47.608;19.366;2023-08-17T00:09:59;99252.88;;;22.07;77.63
80116;BME280;69423;47.608;19.366;2023-08-17T00:10:30;99253.38;;;22.03;78.15
80116;BME280;69423;47.608;19.366;2023-08-17T00:11:01;99251.41;;;21.99;77.83
80116;BME280;69423;47.608;19.366;2023-08-17T00:11:33;99252.81;;;22.01;77.78
80116;BME280;69423;47.608;19.366;2023-08-17T00:12:04;99246.88;;;22.05;77.70
80116;BME280;69423;47.608;19.366;2023-08-17T00:12:35;99249.31;;;22.06;77.23
80116;BME280;69423;47.608;19.366;2023-08-17T00:13:06;99246.88;;;22.05;76.74
80116;BME280;69423;47.608;19.366;2023-08-17T00:13:37;99245.78;;;22.06;77.19
80116;BME280;69423;47.608;19.366;2023-08-17T00:14:08;99248.50;;;22.06;77.13
80116;BME280;69423;47.608;19.366;2023-08-17T00:14:40;99249.31;;;22.06;77.21
80116;BME280;69423;47.608;19.366;2023-08-17T00:15:11;99251.78;;;22.08;76.89
80116;BME280;69423;47.608;19.366;2023-08-17T00:15:42;99251.31;;;22.11;77.05
80116;BME280;69423;47.608;19.366;2023-08-17T00:16:15;99250.16;;;22.07;77.16
80116;BME280;69423;47.608;19.366;2023-08-17T00:16:49;99252.31;;;22.05;77.24
80116;BME280;69423;47.608;19.366;2023-08-17T00:17:21;99247.94;;;22.03;77.52
80116;BME280;69423;47.608;19.366;2023-08-17T00:17:52;99252.31;;;22.05;77.10
80116;BME280;69423;47.608;19.366;2023-08-17T00:18:24;99257.75;;;22.05;77.30
80116;BME280;69423;47.608;19.366;2023-08-17T00:18:55;99255.84;;;22.05;77.27
80116;BME280;69423;47.608;19.366;2023-08-17T00:19:26;99252.63;;;22.08;77.09
80116;BME280;69423;47.608;19.366;2023-08-17T00:19:57;99258.88;;;22.09;77.17
80116;BME280;69423;47.608;19.366;2023-08-17T00:20:28;99256.09;;;22.03;77.45
80116;BME280;69423;47.608;19.366;2023-08-17T00:20:59;99250.66;;;22.03;76.99
80116;BME280;69423;47.608;19.366;2023-08-17T00:21:30;99245.56;;;22.07;76.80
80116;BME280;69423;47.608;19.366;2023-08-17T00:22:01;99244.22;;;22.10;77.66
80116;BME280;69423;47.608;19.366;2023-08-17T00:22:32;99250.47;;;22.10;77.13
80116;BME280;69423;47.608;19.366;2023-08-17T00:23:03;99252.94;;;22.12;77.09
80116;BME280;69423;47.608;19.366;2023-08-17T00:23:35;99257.22;;;22.08;76.89
80116;BME280;69423;47.608;19.366;2023-08-17T00:24:06;99256.47;;;22.12;76.64
80116;BME280;69423;47.608;19.366;2023-08-17T00:24:37;99256.22;;;22.14;76.33
80116;BME280;69423;47.608;19.366;2023-08-17T00:25:09;99253.50;;;22.14;76.22
80116;BME280;69423;47.608;19.366;2023-08-17T00:25:40;99253.28;;;22.15;76.52
80116;BME280;69423;47.608;19.366;2023-08-17T00:26:11;99248.09;;;22.14;76.68
80116;BME280;69423;47.608;19.366;2023-08-17T00:26:42;99251.59;;;22.14;76.52
80116;BME280;69423;47.608;19.366;2023-08-17T00:27:13;99252.44;;;22.15;76.48
80116;BME280;69423;47.608;19.366;2023-08-17T00:27:44;99251.59;;;22.14;76.63
80116;BME280;69423;47.608;19.366;2023-08-17T00:28:15;99256.31;;;22.19;76.16
80116;BME280;69423;47.608;19.366;2023-08-17T00:28:46;99255.47;;;22.18;76.11
80116;BME280;69423;47.608;19.366;2023-08-17T00:29:17;99249.78;;;22.20;76.71
80116;BME280;69423;47.608;19.366;2023-08-17T00:29:48;99260.91;;;22.18;76.24
80116;BME280;69423;47.608;19.366;2023-08-17T00:30:19;99253.50;;;22.14;76.58
80116;BME280;69423;47.608;19.366;2023-08-17T00:30:51;99245.88;;;22.11;76.45
80116;BME280;69423;47.608;19.366;2023-08-17T00:31:22;99249.16;;;22.13;76.13
80116;BME280;69423;47.608;19.366;2023-08-17T00:31:53;99256.78;;;22.16;76.76
80116;BME280;69423;47.608;19.366;2023-08-17T00:32:24;99247.84;;;22.15;76.92
80116;BME280;69423;47.608;19.366;2023-08-17T00:32:55;99253.50;;;22.14;76.46
80116;BME280;69423;47.608;19.366;2023-08-17T00:33:27;99248.09;;;22.14;76.41
80116;BME280;69423;47.608;19.366;2023-08-17T00:33:58;99246.44;;;22.13;76.68
80116;BME280;69423;47.608;19.366;2023-08-17T00:34:29;99245.38;;;22.14;76.59
80116;BME280;69423;47.608;19.366;2023-08-17T00:35:00;99244.31;;;22.15;76.38
80116;BME280;69423;47.608;19.366;2023-08-17T00:35:31;99248.66;;;22.16;76.54
80116;BME280;69423;47.608;19.366;2023-08-17T00:36:03;99242.16;;;22.17;76.51
80116;BME280;69423;47.608;19.366;2023-08-17T00:36:34;99250.78;;;22.14;76.38
80116;BME280;69423;47.608;19.366;2023-08-17T00:37:05;99250.78;;;22.14;76.94
80116;BME280;69423;47.608;19.366;2023-08-17T00:37:36;99249.16;;;22.13;76.57
80116;BME280;69423;47.608;19.366;2023-08-17T00:38:07;99239.59;;;22.10;76.63
80116;BME280;69423;47.608;19.366;2023-08-17T00:38:38;99243.75;;;22.13;76.94
80116;BME280;69423;47.608;19.366;2023-08-17T00:39:10;99238.78;;;22.10;76.91
80116;BME280;69423;47.608;19.366;2023-08-17T00:39:41;99241.19;;;22.06;76.79
80116;BME280;69423;47.608;19.366;2023-08-17T00:40:12;99239.31;;;22.07;77.56
80116;BME280;69423;47.608;19.366;2023-08-17T00:40:43;99241.75;;;22.08;77.00
80116;BME280;69423;47.608;19.366;2023-08-17T00:41:14;99241.75;;;22.08;76.87
80116;BME280;69423;47.608;19.366;2023-08-17T00:41:45;99240.94;;;22.08;76.71
80116;BME280;69423;47.608;19.366;2023-08-17T00:42:17;99247.50;;;22.12;76.92
80116;BME280;69423;47.608;19.366;2023-08-17T00:42:48;99236.16;;;22.15;76.74
80116;BME280;69423;47.608;19.366;2023-08-17T00:43:20;99240.50;;;22.16;76.99
80116;BME280;69423;47.608;19.366;2023-08-17T00:43:51;99235.06;;;22.16;76.47
80116;BME280;69423;47.608;19.366;2023-08-17T00:44:22;99242.16;;;22.17;76.35
80116;BME280;69423;47.608;19.366;2023-08-17T00:44:53;99244.88;;;22.17;76.13
80116;BME280;69423;47.608;19.366;2023-08-17T00:45:24;99245.13;;;22.15;76.68
80116;BME280;69423;47.608;19.366;2023-08-17T00:45:55;99246.50;;;22.18;76.70
80116;BME280;69423;47.608;19.366;2023-08-17T00:46:26;99239.16;;;22.18;76.32
80116;BME280;69423;47.608;19.366;2023-08-17T00:46:59;99241.41;;;22.21;75.94
80116;BME280;69423;47.608;19.366;2023-08-17T00:47:30;99241.41;;;22.21;76.07
80116;BME280;69423;47.608;19.366;2023-08-17T00:48:02;99256.88;;;22.21;76.04
80116;BME280;69423;47.608;19.366;2023-08-17T00:48:36;99248.16;;;22.19;76.13
80116;BME280;69423;47.608;19.366;2023-08-17T00:49:07;99248.16;;;22.19;76.38
80116;BME280;69423;47.608;19.366;2023-08-17T00:49:38;99247.03;;;22.15;76.52
80116;BME280;69423;47.608;19.366;2023-08-17T00:50:10;99245.94;;;22.16;76.43
80116;BME280;69423;47.608;19.366;2023-08-17T00:50:43;99247.25;;;22.13;77.02
80116;BME280;69423;47.608;19.366;2023-08-17T00:51:16;99234.50;;;22.14;76.65
80116;BME280;69423;47.608;19.366;2023-08-17T00:51:47;99248.09;;;22.14;76.46
80116;BME280;69423;47.608;19.366;2023-08-17T00:52:19;99238.03;;;22.14;76.47
80116;BME280;69423;47.608;19.366;2023-08-17T00:52:52;99238.31;;;22.13;76.49
80116;BME280;69423;47.608;19.366;2023-08-17T00:53:27;99249.97;;;22.13;76.36
80116;BME280;69423;47.608;19.366;2023-08-17T00:54:01;99250.78;;;22.14;76.32
80116;BME280;69423;47.608;19.366;2023-08-17T00:54:33;99247.84;;;22.15;76.52
80116;BME280;69423;47.608;19.366;2023-08-17T00:55:05;99243.22;;;22.16;76.37
80116;BME280;69423;47.608;19.366;2023-08-17T00:55:36;99247.03;;;22.15;76.46
80116;BME280;69423;47.608;19.366;2023-08-17T00:56:08;99250.56;;;22.15;76.53
80116;BME280;69423;47.608;19.366;2023-08-17T00:56:40;99253.50;;;22.14;76.72
80116;BME280;69423;47.608;19.366;2023-08-17T00:57:11;99252.94;;;22.12;76.64
80116;BME280;69423;47.608;19.366;2023-08-17T00:57:43;99255.09;;;22.10;76.62
80116;BME280;69423;47.608;19.366;2023-08-17T00:58:15;99255.59;;;22.07;76.84
80116;BME280;69423;47.608;19.366;2023-08-17T00:58:46;99242.03;;;22.07;77.08
80116;BME280;69423;47.608;19.366;2023-08-17T00:59:17;99254.50;;;22.08;76.85
80116;BME280;69423;47.608;19.366;2023-08-17T00:59:48;99248.84;;;22.09;77.27
80116;BME280;69423;47.608;19.366;2023-08-17T01:00:19;99250.75;;;22.09;76.72
80116;BME280;69423;47.608;19.366;2023-08-17T01:00:51;99251.78;;;22.08;76.74
80116;BME280;69423;47.608;19.366;2023-08-17T01:01:22;99254.28;;;22.09;76.59
80116;BME280;69423;47.608;19.366;2023-08-17T01:01:54;99251.31;;;22.11;76.53
80116;BME280;69423;47.608;19.366;2023-08-17T01:02:25;99244.22;;;22.10;76.71
80116;BME280;69423;47.608;19.366;2023-08-17T01:02:57;99243.09;;;22.06;76.60
80116;BME280;69423;47.608;19.366;2023-08-17T01:03:28;99251.75;;;22.02;76.93
80116;BME280;69423;47.608;19.366;2023-08-17T01:04:02;99256.66;;;22.06;77.12
80116;BME280;69423;47.608;19.366;2023-08-17T01:04:34;99253.94;;;22.06;77.23
80116;BME280;69423;47.608;19.366;2023-08-17T01:05:05;99252.88;;;22.07;76.91
80116;BME280;69423;47.608;19.366;2023-08-17T01:05:37;99255.59;;;22.07;76.53
80116;BME280;69423;47.608;19.366;2023-08-17T01:06:11;99252.31;;;22.05;76.60
80116;BME280;69423;47.608;19.366;2023-08-17T01:06:43;99253.38;;;22.03;76.86
80116;BME280;69423;47.608;19.366;2023-08-17T01:07:14;99243.59;;;22.02;76.56
80116;BME280;69423;47.608;19.366;2023-08-17T01:07:45;99250.66;;;22.03;76.77
80116;BME280;69423;47.608;19.366;2023-08-17T01:08:16;99248.47;;;22.00;76.93
80116;BME280;69423;47.608;19.366;2023-08-17T01:08:47;99252.00;;;22.01;76.88
80116;BME280;69423;47.608;19.366;2023-08-17T01:09:18;99252.81;;;22.01;76.98
80116;BME280;69423;47.608;19.366;2023-08-17T01:09:49;99252.81;;;22.01;76.85
80116;BME280;69423;47.608;19.366;2023-08-17T01:10:21;99250.09;;;22.01;76.63
80116;BME280;69423;47.608;19.366;2023-08-17T01:14:39;99246.78;;;21.99;76.92
80116;BME280;69423;47.608;19.366;2023-08-17T01:15:27;99248.94;;;21.97;76.59
80116;BME280;69423;47.608;19.366;2023-08-17T01:16:05;99250.03;;;21.96;76.62
80116;BME280;69423;47.608;19.366;2023-08-17T01:17:33;99245.41;;;21.97;77.07
80116;BME280;69423;47.608;19.366;2023-08-17T01:18:17;99252.16;;;21.94;77.07
80116;BME280;69423;47.608;19.366;2023-08-17T01:18:54;99251.09;;;21.95;77.07
80116;BME280;69423;47.608;19.366;2023-08-17T01:19:27;99252.16;;;21.94;77.24
80116;BME280;69423;47.608;19.366;2023-08-17T01:19:58;99254.88;;;21.94;77.42
80116;BME280;69423;47.608;19.366;2023-08-17T01:20:31;99250.84;;;21.97;76.70
80116;BME280;69423;47.608;19.366;2023-08-17T01:21:05;99258.41;;;21.95;77.11
80116;BME280;69423;47.608;19.366;2023-08-17T01:21:50;99260.31;;;21.94;77.21
80116;BME280;69423;47.608;19.366;2023-08-17T01:22:22;99256.22;;;21.92;77.53
80116;BME280;69423;47.608;19.366;2023-08-17T01:22:55;99252.66;;;21.91;77.32
80116;BME280;69423;47.608;19.366;2023-08-17T01:23:29;99255.38;;;21.91;77.49
80116;BME280;69423;47.608;19.366;2023-08-17T01:24:03;99256.47;;;21.90;77.88
80116;BME280;69423;47.608;19.366;2023-08-17T01:24:34;99253.16;;;21.88;77.50
80116;BME280;69423;47.608;19.366;2023-08-17T01:25:05;99256.38;;;21.85;77.69
80116;BME280;69423;47.608;19.366;2023-08-17T01:25:37;99254.75;;;21.84;78.39
80116;BME280;69423;47.608;19.366;2023-08-17T01:26:08;99261.50;;;21.81;78.45
80116;BME280;69423;47.608;19.366;2023-08-17T01:26:39;99266.09;;;21.81;78.35
80116;BME280;69423;47.608;19.366;2023-08-17T01:27:10;99265.78;;;21.77;78.22
80116;BME280;69423;47.608;19.366;2023-08-17T01:27:43;99270.13;;;21.78;78.21
80116;BME280;69423;47.608;19.366;2023-08-17T01:28:15;99266.09;;;21.81;77.84
80116;BME280;69423;47.608;19.366;2023-08-17T01:28:47;99264.69;;;21.78;78.04
80116;BME280;69423;47.608;19.366;2023-08-17T01:29:18;99268.72;;;21.76;78.14
80116;BME280;69423;47.608;19.366;2023-08-17T01:29:50;99258.94;;;21.75;78.50
80116;BME280;69423;47.608;19.366;2023-08-17T01:30:22;99267.91;;;21.75;78.60
80116;BME280;69423;47.608;19.366;2023-08-17T01:31:19;99265.44;;;21.74;78.80
80116;BME280;69423;47.608;19.366;2023-08-17T01:32:06;99259.78;;;21.75;78.29
80116;BME280;69423;47.608;19.366;2023-08-17T01:32:56;99263.63;;;21.79;78.42
80116;BME280;69423;47.608;19.366;2023-08-17T01:33:52;99257.63;;;21.77;78.51
80116;BME280;69423;47.608;19.366;2023-08-17T01:34:27;99260.59;;;21.76;78.56
80116;BME280;69423;47.608;19.366;2023-08-17T01:36:26;99254.59;;;21.74;78.45
80116;BME280;69423;47.608;19.366;2023-08-17T01:37:01;99264.94;;;21.77;78.76
80116;BME280;69423;47.608;19.366;2023-08-17T01:37:35;99259.50;;;21.77;78.86
80116;BME280;69423;47.608;19.366;2023-08-17T01:38:12;99257.88;;;21.76;78.37
80116;BME280;69423;47.608;19.366;2023-08-17T01:38:46;99251.38;;;21.77;78.37
80116;BME280;69423;47.608;19.366;2023-08-17T01:39:24;99253.84;;;21.78;78.11
80116;BME280;69423;47.608;19.366;2023-08-17T01:39:58;99254.59;;;21.74;79.14
80116;BME280;69423;47.608;19.366;2023-08-17T01:40:31;99252.69;;;21.74;78.58
80116;BME280;69423;47.608;19.366;2023-08-17T01:41:04;99249.72;;;21.76;78.47
80116;BME280;69423;47.608;19.366;2023-08-17T01:41:37;99259.78;;;21.75;78.21
80116;BME280;69423;47.608;19.366;2023-08-17T01:42:10;99258.94;;;21.75;78.43
80116;BME280;69423;47.608;19.366;2023-08-17T01:42:43;99258.94;;;21.75;78.62
80116;BME280;69423;47.608;19.366;2023-08-17T01:43:16;99261.41;;;21.76;78.89
80116;BME280;69423;47.608;19.366;2023-08-17T01:43:48;99259.19;;;21.73;79.04
80116;BME280;69423;47.608;19.366;2023-08-17T01:44:20;99252.94;;;21.73;78.97
80116;BME280;69423;47.608;19.366;2023-08-17T01:44:52;99256.16;;;21.70;79.01
80116;BME280;69423;47.608;19.366;2023-08-17T01:45:24;99251.31;;;21.72;79.22
80116;BME280;69423;47.608;19.366;2023-08-17T01:45:55;99254.81;;;21.72;79.23
80116;BME280;69423;47.608;19.366;2023-08-17T01:46:30;99244.47;;;21.69;78.92
80116;BME280;69423;47.608;19.366;2023-08-17T01:47:03;99254.00;;;21.72;79.14
80116;BME280;69423;47.608;19.366;2023-08-17T01:47:35;99243.97;;;21.72;79.32
80116;BME280;69423;47.608;19.366;2023-08-17T01:48:06;99251.06;;;21.73;79.22
80116;BME280;69423;47.608;19.366;2023-08-17T01:48:37;99247.50;;;21.73;78.86
80116;BME280;69423;47.608;19.366;2023-08-17T01:49:08;99249.97;;;21.74;78.44
80116;BME280;69423;47.608;19.366;2023-08-17T01:49:39;99248.06;;;21.75;79.17
80116;BME280;69423;47.608;19.366;2023-08-17T01:50:10;99248.06;;;21.75;79.09
80116;BME280;69423;47.608;19.366;2023-08-17T01:50:41;99248.06;;;21.75;78.57
80116;BME280;69423;47.608;19.366;2023-08-17T01:51:17;99236.41;;;21.74;78.55
80116;BME280;69423;47.608;19.366;2023-08-17T01:51:50;99243.97;;;21.72;78.96
80116;BME280;69423;47.608;19.366;2023-08-17T01:52:21;99241.50;;;21.71;79.23
80116;BME280;69423;47.608;19.366;2023-08-17T01:52:52;99244.78;;;21.73;79.03
80116;BME280;69423;47.608;19.366;2023-08-17T01:53:23;99232.88;;;21.74;79.25
80116;BME280;69423;47.608;19.366;2023-08-17T01:53:54;99239.34;;;21.73;79.32
80116;BME280;69423;47.608;19.366;2023-08-17T01:54:25;99230.91;;;21.69;79.17
80116;BME280;69423;47.608;19.366;2023-08-17T01:54:57;99227.94;;;21.71;79.41
80116;BME280;69423;47.608;19.366;2023-08-17T01:55:28;99228.50;;;21.73;79.72
80116;BME280;69423;47.608;19.366;2023-08-17T01:55:59;99225.31;;;21.76;79.46
80116;BME280;69423;47.608;19.366;2023-08-17T01:56:30;99228.34;;;21.79;79.13
80116;BME280;69423;47.608;19.366;2023-08-17T01:57:01;99224.53;;;21.80;78.88
80116;BME280;69423;47.608;19.366;2023-08-17T01:57:32;99224.22;;;21.77;78.62
80116;BME280;69423;47.608;19.366;2023-08-17T01:58:03;99231.31;;;21.78;79.31
80116;BME280;69423;47.608;19.366;2023-08-17T01:58:34;99231.88;;;21.80;79.20
80116;BME280;69423;47.608;19.366;2023-08-17T01:59:05;99232.44;;;21.82;79.40
80116;BME280;69423;47.608;19.366;2023-08-17T01:59:36;99234.59;;;21.80;79.50
80116;BME280;69423;47.608;19.366;2023-08-17T02:00:07;99234.59;;;21.80;79.21
80116;BME280;69423;47.608;19.366;2023-08-17T02:00:41;99242.66;;;21.75;79.28
80116;BME280;69423;47.608;19.366;2023-08-17T02:01:13;99244.53;;;21.74;79.69
80116;BME280;69423;47.608;19.366;2023-08-17T02:01:44;99246.22;;;21.75;78.88
80116;BME280;69423;47.608;19.366;2023-08-17T02:02:15;99256.72;;;21.72;79.88
80116;BME280;69423;47.608;19.366;2023-08-17T02:02:46;99249.63;;;21.71;79.69
80116;BME280;69423;47.608;19.366;2023-08-17T02:03:17;99251.78;;;21.69;79.60
80116;BME280;69423;47.608;19.366;2023-08-17T02:03:48;99250.41;;;21.66;79.87
80116;BME280;69423;47.608;19.366;2023-08-17T02:04:19;99258.28;;;21.68;80.11
80116;BME280;69423;47.608;19.366;2023-08-17T02:04:50;99258.28;;;21.68;79.65
80116;BME280;69423;47.608;19.366;2023-08-17T02:05:21;99247.09;;;21.64;80.11
80116;BME280;69423;47.608;19.366;2023-08-17T02:05:52;99255.53;;;21.62;79.85
80116;BME280;69423;47.608;19.366;2023-08-17T02:06:23;99254.94;;;21.60;80.00
80116;BME280;69423;47.608;19.366;2023-08-17T02:06:54;99253.84;;;21.61;80.43
80116;BME280;69423;47.608;19.366;2023-08-17T02:07:25;99252.81;;;21.62;79.89
80116;BME280;69423;47.608;19.366;2023-08-17T02:07:56;99258.81;;;21.65;80.26
80116;BME280;69423;47.608;19.366;2023-08-17T02:08:27;99256.34;;;21.63;80.15
80116;BME280;69423;47.608;19.366;2023-08-17T02:08:59;99259.28;;;21.61;80.25
80116;BME280;69423;47.608;19.366;2023-08-17T02:09:30;99250.56;;;21.59;80.64
80116;BME280;69423;47.608;19.366;2023-08-17T02:10:01;99269.81;;;21.58;80.46
80116;BME280;69423;47.608;19.366;2023-08-17T02:10:32;99263.56;;;21.57;80.60
80116;BME280;69423;47.608;19.366;2023-08-17T02:11:03;99257.31;;;21.57;80.31
80116;BME280;69423;47.608;19.366;2023-08-17T02:11:34;99255.66;;;21.56;80.49
80116;BME280;69423;47.608;19.366;2023-08-17T02:12:05;99266.50;;;21.56;80.47
80116;BME280;69423;47.608;19.366;2023-08-17T02:12:36;99259.94;;;21.52;80.50
80116;BME280;69423;47.608;19.366;2023-08-17T02:13:07;99256.91;;;21.48;81.29
80116;BME280;69423;47.608;19.366;2023-08-17T02:13:39;99257.50;;;21.50;80.85
80116;BME280;69423;47.608;19.366;2023-08-17T02:14:10;99258.06;;;21.52;80.74
80116;BME280;69423;47.608;19.366;2023-08-17T02:14:41;99260.78;;;21.52;80.40
80116;BME280;69423;47.608;19.366;2023-08-17T02:15:12;99258.66;;;21.54;80.75
80116;BME280;69423;47.608;19.366;2023-08-17T02:15:43;99261.09;;;21.56;81.09
80116;BME280;69423;47.608;19.366;2023-08-17T02:16:14;99257.81;;;21.54;80.97
80116;BME280;69423;47.608;19.366;2023-08-17T02:16:45;99258.06;;;21.52;81.34
80116;BME280;69423;47.608;19.366;2023-08-17T02:17:16;99257.50;;;21.50;80.88
80116;BME280;69423;47.608;19.366;2023-08-17T02:17:47;99261.25;;;21.49;80.86
80116;BME280;69423;47.608;19.366;2023-08-17T02:18:18;99250.16;;;21.51;80.87
80116;BME280;69423;47.608;19.366;2023-08-17T02:18:49;99261.59;;;21.53;80.78
80116;BME280;69423;47.608;19.366;2023-08-17T02:19:20;99259.13;;;21.51;80.95
80116;BME280;69423;47.608;19.366;2023-08-17T02:19:51;99254.22;;;21.48;80.67
80116;BME280;69423;47.608;19.366;2023-08-17T02:20:22;99253.38;;;21.48;80.97
80116;BME280;69423;47.608;19.366;2023-08-17T02:20:53;99253.13;;;21.49;80.86
80116;BME280;69423;47.608;19.366;2023-08-17T02:21:24;99255.03;;;21.49;80.85
80116;BME280;69423;47.608;19.366;2023-08-17T02:21:55;99247.69;;;21.49;80.76
80116;BME280;69423;47.608;19.366;2023-08-17T02:22:26;99249.84;;;21.47;81.06
80116;BME280;69423;47.608;19.366;2023-08-17T02:22:57;99249.34;;;21.50;80.64
80116;BME280;69423;47.608;19.366;2023-08-17T02:23:28;99257.50;;;21.50;80.29
80116;BME280;69423;47.608;19.366;2023-08-17T02:23:59;99249.59;;;21.49;80.76
80116;BME280;69423;47.608;19.366;2023-08-17T02:24:30;99259.38;;;21.50;80.54
80116;BME280;69423;47.608;19.366;2023-08-17T02:25:01;99250.41;;;21.49;80.91
80116;BME280;69423;47.608;19.366;2023-08-17T02:25:33;99246.63;;;21.50;80.29
80116;BME280;69423;47.608;19.366;2023-08-17T02:26:06;99250.66;;;21.48;80.61
80116;BME280;69423;47.608;19.366;2023-08-17T02:26:37;99250.66;;;21.48;80.74
80116;BME280;69423;47.608;19.366;2023-08-17T02:27:09;99252.53;;;21.47;80.86
80116;BME280;69423;47.608;19.366;2023-08-17T02:27:40;99244.97;;;21.49;80.28
80116;BME280;69423;47.608;19.366;2023-08-17T02:28:11;99244.97;;;21.49;80.16
80116;BME280;69423;47.608;19.366;2023-08-17T02:28:42;99252.53;;;21.47;80.58
80116;BME280;69423;47.608;19.366;2023-08-17T02:29:13;99247.69;;;21.49;80.62
80116;BME280;69423;47.608;19.366;2023-08-17T02:29:44;99248.78;;;21.48;80.88
80116;BME280;69423;47.608;19.366;2023-08-17T02:30:15;99243.94;;;21.50;80.66
80116;BME280;69423;47.608;19.366;2023-08-17T02:30:46;99248.50;;;21.50;80.53
80116;BME280;69423;47.608;19.366;2023-08-17T02:31:18;99243.94;;;21.50;80.34
80116;BME280;69423;47.608;19.366;2023-08-17T02:31:49;99239.56;;;21.49;80.51
80116;BME280;69423;47.608;19.366;2023-08-17T02:32:20;99249.34;;;21.50;80.51
80116;BME280;69423;47.608;19.366;2023-08-17T02:32:51;99243.94;;;21.50;80.65
80116;BME280;69423;47.608;19.366;2023-08-17T02:33:22;99244.97;;;21.49;80.98
80116;BME280;69423;47.608;19.366;2023-08-17T02:33:54;99244.06;;;21.43;81.01
80116;BME280;69423;47.608;19.366;2023-08-17T02:34:28;99246.78;;;21.43;81.22
80116;BME280;69423;47.608;19.366;2023-08-17T02:34:59;99245.97;;;21.43;81.16
80116;BME280;69423;47.608;19.366;2023-08-17T02:35:31;99248.69;;;21.43;81.19
80116;BME280;69423;47.608;19.366;2023-08-17T02:36:02;99243.16;;;21.38;81.49
80116;BME280;69423;47.608;19.366;2023-08-17T02:36:33;99250.72;;;21.36;81.63
80116;BME280;69423;47.608;19.366;2023-08-17T02:37:04;99242.59;;;21.36;81.91
80116;BME280;69423;47.608;19.366;2023-08-17T02:37:35;99242.81;;;21.34;82.10
80116;BME280;69423;47.608;19.366;2023-08-17T02:38:06;99246.28;;;21.30;82.15
80116;BME280;69423;47.608;19.366;2023-08-17T02:38:37;99245.19;;;21.31;82.12
80116;BME280;69423;47.608;19.366;2023-08-17T02:39:08;99240.03;;;21.29;82.42
80116;BME280;69423;47.608;19.366;2023-08-17T02:39:40;99244.31;;;21.25;82.79
80116;BME280;69423;47.608;19.366;2023-08-17T02:40:11;99241.59;;;21.25;82.49
80116;BME280;69423;47.608;19.366;2023-08-17T02:40:42;99241.09;;;21.28;83.41
80116;BME280;69423;47.608;19.366;2023-08-17T02:41:13;99237.00;;;21.26;83.27
80116;BME280;69423;47.608;19.366;2023-08-17T02:41:44;99241.31;;;21.27;82.96
80116;BME280;69423;47.608;19.366;2023-08-17T02:42:20;99239.69;;;21.26;83.79
80116;BME280;69423;47.608;19.366;2023-08-17T02:42:51;99233.69;;;21.23;83.78
80116;BME280;69423;47.608;19.366;2023-08-17T02:43:22;99231.81;;;21.24;83.81
80116;BME280;69423;47.608;19.366;2023-08-17T02:43:53;99233.59;;;21.18;84.16
80116;BME280;69423;47.608;19.366;2023-08-17T02:44:24;99232.53;;;21.19;83.95
80116;BME280;69423;47.608;19.366;2023-08-17T02:44:55;99227.69;;;21.21;84.02
80116;BME280;69423;47.608;19.366;2023-08-17T02:45:26;99231.47;;;21.20;84.40
80116;BME280;69423;47.608;19.366;2023-08-17T02:45:57;99234.44;;;21.19;84.98
80116;BME280;69423;47.608;19.366;2023-08-17T02:46:30;99231.97;;;21.17;84.27
80116;BME280;69423;47.608;19.366;2023-08-17T02:47:01;99235.25;;;21.19;84.65
80116;BME280;69423;47.608;19.366;2023-08-17T02:47:32;99229.84;;;21.19;84.71
80116;BME280;69423;47.608;19.366;2023-08-17T02:48:04;99224.06;;;21.16;84.61
80116;BME280;69423;47.608;19.366;2023-08-17T02:48:35;99217.84;;;21.15;84.79
80116;BME280;69423;47.608;19.366;2023-08-17T02:49:06;99223.72;;;21.12;84.70
80116;BME280;69423;47.608;19.366;2023-08-17T02:49:37;99223.50;;;21.14;85.61
80116;BME280;69423;47.608;19.366;2023-08-17T02:50:08;99219.16;;;21.13;85.27
80116;BME280;69423;47.608;19.366;2023-08-17T02:50:39;99217.50;;;21.12;85.86
80116;BME280;69423;47.608;19.366;2023-08-17T02:51:10;99223.72;;;21.12;85.17
80116;BME280;69423;47.608;19.366;2023-08-17T02:51:41;99218.31;;;21.12;84.89
80116;BME280;69423;47.608;19.366;2023-08-17T02:52:12;99218.81;;;21.09;85.42
80116;BME280;69423;47.608;19.366;2023-08-17T02:52:43;99219.63;;;21.10;85.33
80116;BME280;69423;47.608;19.366;2023-08-17T02:53:14;99219.06;;;21.08;85.59